Ramat Gan, Israel
Current Conditions -  °F | °C
As of 1:50 PM on Thursday 18 Dec 2014 (Local Time) from LLSD Reporting Station
Clear Clear  
Wind Chill: 68°   Ceiling: Unl
Heat Index: 68°   Visibility: 6mi
Dew Point: 50°   Wind: 7mph
Humidity: 52%   Direction: 210°SSW
Pressure: 30"   Gusts: NA
Location:  32.08°N, 34.8°E
Report Text: LLSD 181050Z 21006KT CAVOK 20/10 Q1016
Loading
Personal Weather Stations






























Interactive Weather Map New forecast layout! Learn more

10-Day Weather Forecast

Advertisements
Track Severe Weather on mobile